createdAt,value
2023-02-13T00:00:11.304Z,46.10
2023-02-13T00:02:37.965Z,23.27
2023-02-13T00:05:04.735Z,25.02
2023-02-13T00:07:31.415Z,34.58
2023-02-13T00:09:58.061Z,32.60
2023-02-13T00:12:24.751Z,49.05
2023-02-13T00:14:51.450Z,27.15
2023-02-13T00:17:18.082Z,27.77
2023-02-13T00:19:44.749Z,12.13
2023-02-13T00:22:11.830Z,14.82
2023-02-13T00:24:38.566Z,19.60
2023-02-13T00:27:05.232Z,11.55
2023-02-13T00:29:31.850Z,12.35
2023-02-13T00:31:58.580Z,12.23
2023-02-13T00:34:25.271Z,10.55
2023-02-13T00:36:51.890Z,12.90
2023-02-13T00:39:18.581Z,9.00
2023-02-13T00:41:45.339Z,14.95
2023-02-13T00:44:12.086Z,12.60
2023-02-13T00:46:38.856Z,17.50
2023-02-13T00:49:06.152Z,18.02
2023-02-13T00:51:32.893Z,13.32
2023-02-13T00:53:59.545Z,17.80
2023-02-13T00:56:26.156Z,22.80
2023-02-13T00:58:52.909Z,12.90
2023-02-13T01:01:19.578Z,14.55
2023-02-13T01:03:46.305Z,11.50
2023-02-13T01:06:12.966Z,13.60
2023-02-13T01:08:40.797Z,12.48
2023-02-13T01:11:07.997Z,12.85
2023-02-13T01:13:34.752Z,11.68
2023-02-13T01:16:01.593Z,10.63
2023-02-13T01:18:28.457Z,14.80
2023-02-13T01:21:04.139Z,19.27
2023-02-13T01:23:35.250Z,19.15
2023-02-13T01:26:07.819Z,16.42
2023-02-13T01:28:35.062Z,21.67
2023-02-13T01:31:02.328Z,14.75
2023-02-13T01:33:29.852Z,57.45
2023-02-13T01:35:56.602Z,23.55
2023-02-13T01:38:23.242Z,52.80
2023-02-13T01:40:54.363Z,48.78
2023-02-13T01:43:23.539Z,75.90
2023-02-13T01:45:55.800Z,119.22
2023-02-13T01:48:27.318Z,154.20
2023-02-13T01:51:04.775Z,179.93
2023-02-13T01:53:36.093Z,202.85
2023-02-13T01:56:08.333Z,189.85
2023-02-13T01:58:37.406Z,200.55
2023-02-13T02:01:06.610Z,120.28
2023-02-13T02:03:39.708Z,117.50
2023-02-13T02:06:11.084Z,105.40
2023-02-13T02:08:39.065Z,151.00
2023-02-13T02:11:15.425Z,93.50
2023-02-13T02:13:42.641Z,86.30
2023-02-13T02:16:09.740Z,46.90
2023-02-13T02:18:36.386Z,44.83
2023-02-13T02:21:38.738Z,79.03
2023-02-13T02:24:38.691Z,78.95
2023-02-13T02:27:43.934Z,36.28
2023-02-13T02:30:46.084Z,58.72
2023-02-13T02:33:23.102Z,18.70
2023-02-13T02:36:20.746Z,69.45
2023-02-13T02:39:06.634Z,54.92
2023-02-13T02:42:06.633Z,89.22
2023-02-13T02:45:03.330Z,570.22
2023-02-13T02:48:31.214Z,231.20
2023-02-13T02:51:53.145Z,82.90
2023-02-13T02:55:03.216Z,60.63
2023-02-13T02:57:51.804Z,32.13
2023-02-13T03:00:41.085Z,26.27
2023-02-13T03:03:38.908Z,50.83
2023-02-13T03:06:14.381Z,133.43
2023-02-13T03:09:13.560Z,214.15
2023-02-13T03:12:01.849Z,138.30
2023-02-13T03:14:28.695Z,195.35
2023-02-13T03:17:16.782Z,158.48
2023-02-13T03:20:34.251Z,131.73
2023-02-13T03:23:18.420Z,187.52
2023-02-13T03:26:13.603Z,270.27
2023-02-13T03:29:09.418Z,188.05
2023-02-13T03:32:00.936Z,153.13
2023-02-13T03:34:52.641Z,194.80
2023-02-13T03:37:46.894Z,144.98
2023-02-13T03:40:22.318Z,203.85
2023-02-13T03:43:04.808Z,140.55
2023-02-13T03:45:57.288Z,133.00
2023-02-13T03:48:54.607Z,104.03
2023-02-13T03:51:28.108Z,104.68
2023-02-13T03:54:01.947Z,136.45
2023-02-13T03:56:50.978Z,161.88
2023-02-13T03:59:29.234Z,124.20
2023-02-13T04:02:20.240Z,99.75
2023-02-13T04:04:54.462Z,104.47
2023-02-13T04:07:29.690Z,171.73
2023-02-13T04:10:03.471Z,51.25
2023-02-13T04:13:12.537Z,78.78
2023-02-13T04:15:45.488Z,55.00
2023-02-13T04:18:21.222Z,54.97
2023-02-13T04:20:48.345Z,73.25
2023-02-13T04:23:15.468Z,65.90
2023-02-13T04:25:46.084Z,55.15
2023-02-13T04:28:12.751Z,34.97
2023-02-13T04:30:39.548Z,57.53
2023-02-13T04:33:06.286Z,62.22
2023-02-13T04:35:32.912Z,72.60
2023-02-13T04:37:59.583Z,60.45
2023-02-13T04:40:26.239Z,35.58
2023-02-13T04:42:53.012Z,68.30
2023-02-13T04:45:19.632Z,116.72
2023-02-13T04:47:56.078Z,106.35
2023-02-13T04:50:23.535Z,83.10
2023-02-13T04:52:55.612Z,97.18
2023-02-13T04:55:23.882Z,63.53
2023-02-13T04:57:53.886Z,67.80
2023-02-13T05:00:22.372Z,107.82
2023-02-13T05:02:49.257Z,77.18
2023-02-13T05:05:16.122Z,45.13
2023-02-13T05:07:43.110Z,67.00
2023-02-13T05:10:11.745Z,53.30
2023-02-13T05:12:38.880Z,42.60
2023-02-13T05:15:06.520Z,31.13
2023-02-13T05:17:33.172Z,68.15
2023-02-13T05:19:59.999Z,54.22
2023-02-13T05:22:45.252Z,70.60
2023-02-13T05:25:11.905Z,36.50
2023-02-13T05:27:38.580Z,62.38
2023-02-13T05:30:05.999Z,88.18
2023-02-13T05:32:32.708Z,100.40
2023-02-13T05:34:59.324Z,115.63
2023-02-13T05:37:26.037Z,48.45
2023-02-13T05:39:52.615Z,353.55
2023-02-13T05:42:19.277Z,112.03
2023-02-13T05:44:45.905Z,197.50
2023-02-13T05:47:12.513Z,186.40
2023-02-13T05:49:39.127Z,152.07
2023-02-13T05:52:05.833Z,259.70
2023-02-13T05:54:32.472Z,273.00
2023-02-13T05:56:59.116Z,107.45
2023-02-13T05:59:25.742Z,147.50
2023-02-13T06:01:52.651Z,152.82
2023-02-13T06:04:19.338Z,204.45
2023-02-13T06:06:46.212Z,70.32
2023-02-13T06:09:12.955Z,216.88
2023-02-13T06:11:39.568Z,130.13
2023-02-13T06:14:06.228Z,76.80
2023-02-13T06:16:32.904Z,81.70
2023-02-13T06:18:59.650Z,133.10
2023-02-13T06:21:26.262Z,66.03
2023-02-13T06:23:52.872Z,197.82
2023-02-13T06:26:19.591Z,166.13
2023-02-13T06:28:46.242Z,202.10
2023-02-13T06:31:13.245Z,171.32
2023-02-13T06:33:39.953Z,89.55
2023-02-13T06:36:07.350Z,81.13
2023-02-13T06:38:33.943Z,90.25
2023-02-13T06:41:04.512Z,140.15
2023-02-13T06:43:31.199Z,173.10
2023-02-13T06:45:57.841Z,116.53
2023-02-13T06:48:24.707Z,119.53
2023-02-13T06:50:54.540Z,118.35
2023-02-13T06:53:24.784Z,186.40
2023-02-13T06:55:55.612Z,141.20
2023-02-13T06:58:24.164Z,151.25
2023-02-13T07:00:52.131Z,121.70
2023-02-13T07:03:19.020Z,51.45
2023-02-13T07:05:45.805Z,83.10
2023-02-13T07:08:13.496Z,122.18
2023-02-13T07:10:41.591Z,79.70
2023-02-13T07:13:09.428Z,166.13
2023-02-13T07:15:37.080Z,98.43
2023-02-13T07:18:04.661Z,97.95
2023-02-13T07:20:31.341Z,51.05
2023-02-13T07:23:02.475Z,101.97
2023-02-13T07:25:29.876Z,83.07
2023-02-13T07:28:04.510Z,137.48
2023-02-13T07:30:33.175Z,135.82
2023-02-13T07:33:04.215Z,69.78
2023-02-13T07:35:31.264Z,52.70
2023-02-13T07:37:58.140Z,27.30
2023-02-13T07:40:24.780Z,20.45
2023-02-13T07:42:51.597Z,26.20
2023-02-13T07:45:18.259Z,29.55
2023-02-13T07:47:44.889Z,52.83
2023-02-13T07:50:12.068Z,20.20
2023-02-13T07:52:38.883Z,22.38
2023-02-13T07:55:06.282Z,30.73
2023-02-13T07:57:33.716Z,33.65
2023-02-13T08:00:00.408Z,18.92
2023-02-13T08:02:27.091Z,29.20
2023-02-13T08:04:53.707Z,10.95
2023-02-13T08:07:20.468Z,9.90
2023-02-13T08:10:05.635Z,22.13
2023-02-13T08:12:35.149Z,11.07
2023-02-13T08:15:01.794Z,15.88
2023-02-13T08:17:28.450Z,16.38
2023-02-13T08:19:55.147Z,17.30
2023-02-13T08:22:21.777Z,8.98
2023-02-13T08:24:48.403Z,10.93
2023-02-13T08:27:15.379Z,14.43
2023-02-13T08:29:42.248Z,12.95
2023-02-13T08:32:09.453Z,7.30
2023-02-13T08:34:36.256Z,11.45
2023-02-13T08:37:03.483Z,33.50
2023-02-13T08:39:30.117Z,21.73
2023-02-13T08:41:56.774Z,15.90
2023-02-13T08:44:23.401Z,9.70
2023-02-13T08:46:50.033Z,7.53
2023-02-13T08:49:16.829Z,18.05
2023-02-13T08:51:43.451Z,20.65
2023-02-13T08:54:10.067Z,17.23
2023-02-13T08:56:36.708Z,70.18
2023-02-13T08:59:03.472Z,8.65
2023-02-13T09:01:30.204Z,24.33
2023-02-13T09:03:56.861Z,9.18
2023-02-13T09:06:26.175Z,48.60
2023-02-13T09:08:53.572Z,43.40
2023-02-13T09:11:23.228Z,34.25
2023-02-13T09:13:52.983Z,9.93
2023-02-13T09:16:19.841Z,18.50
2023-02-13T09:18:51.082Z,11.57
2023-02-13T09:21:19.960Z,120.22
2023-02-13T09:23:46.578Z,56.15
2023-02-13T09:26:15.218Z,93.18
2023-02-13T09:28:42.509Z,17.52
2023-02-13T09:31:12.140Z,29.23
2023-02-13T09:33:39.223Z,13.80
2023-02-13T09:36:07.553Z,65.00
2023-02-13T09:38:34.745Z,20.85
2023-02-13T09:41:05.911Z,61.78
2023-02-13T09:43:41.008Z,19.23
2023-02-13T09:46:16.101Z,56.47
2023-02-13T09:48:47.006Z,196.10
2023-02-13T09:51:17.560Z,29.98
2023-02-13T09:53:51.256Z,40.72
2023-02-13T09:56:24.430Z,27.98
2023-02-13T09:59:06.486Z,21.38
2023-02-13T10:01:47.864Z,55.83
2023-02-13T10:05:00.638Z,13.52
2023-02-13T10:07:51.632Z,12.70
2023-02-13T10:11:00.170Z,25.48
2023-02-13T10:14:01.998Z,56.88
2023-02-13T10:16:49.409Z,10.95
2023-02-13T10:19:42.807Z,17.40
2023-02-13T10:22:17.035Z,33.83
2023-02-13T10:25:04.912Z,48.20
2023-02-13T10:51:13.769Z,16.65
2023-02-13T10:57:26.569Z,9.98
2023-02-13T11:24:26.185Z,13.63
2023-02-13T11:26:59.505Z,12.20
2023-02-13T11:29:30.895Z,11.00
2023-02-13T11:32:28.454Z,16.25
2023-02-13T11:34:56.183Z,15.95
2023-02-13T11:37:28.547Z,10.55
2023-02-13T11:39:57.859Z,12.00
2023-02-13T11:42:31.386Z,10.80
2023-02-13T11:45:01.798Z,10.63
2023-02-13T11:47:39.251Z,12.75
2023-02-13T11:50:29.507Z,12.55
2023-02-13T11:53:06.288Z,13.20
2023-02-13T11:55:40.428Z,13.90
2023-02-13T11:58:25.172Z,14.75
2023-02-13T12:01:25.023Z,12.18
2023-02-13T12:04:18.365Z,14.43
2023-02-13T12:07:12.687Z,12.52
2023-02-13T12:09:41.022Z,13.80
2023-02-13T12:12:16.576Z,12.20
2023-02-13T12:14:45.323Z,12.52
2023-02-13T12:17:31.260Z,13.05
2023-02-13T12:19:59.464Z,13.55
2023-02-13T12:23:03.888Z,13.25
2023-02-13T12:25:53.916Z,13.60
2023-02-13T12:28:28.418Z,13.07
2023-02-13T12:31:38.569Z,13.73
2023-02-13T12:34:33.679Z,14.57
2023-02-13T12:37:13.643Z,13.52
2023-02-13T12:39:52.751Z,13.15
2023-02-13T12:42:41.160Z,14.27
2023-02-13T12:45:48.060Z,11.57
2023-02-13T12:48:33.426Z,12.90
2023-02-13T12:51:26.939Z,14.75
2023-02-13T12:54:30.844Z,16.80
2023-02-13T12:57:36.153Z,16.90
2023-02-13T13:00:40.195Z,12.43
2023-02-13T13:03:35.035Z,12.05
2023-02-13T13:06:19.755Z,14.82
2023-02-13T13:09:11.699Z,19.58
2023-02-13T13:12:30.615Z,14.57
2023-02-13T13:15:34.798Z,16.75
2023-02-13T13:18:36.092Z,13.05
2023-02-13T13:21:36.720Z,14.70
2023-02-13T13:24:35.836Z,12.32
2023-02-13T13:27:03.891Z,13.10
2023-02-13T13:29:42.868Z,13.13
2023-02-13T13:32:16.784Z,18.10
2023-02-13T13:34:43.737Z,12.93
2023-02-13T13:37:37.126Z,11.85
2023-02-13T13:40:24.319Z,12.20
2023-02-13T13:43:03.156Z,14.98
2023-02-13T13:46:08.007Z,12.02
2023-02-13T13:49:06.994Z,18.73
2023-02-13T13:51:33.888Z,14.90
2023-02-13T13:54:25.350Z,13.18
2023-02-13T13:57:11.903Z,12.23
2023-02-13T14:00:21.829Z,18.73
2023-02-13T14:03:25.140Z,18.40
2023-02-13T14:06:08.030Z,15.23
2023-02-13T14:08:40.727Z,15.25
2023-02-13T14:11:27.046Z,12.82
2023-02-13T14:13:53.679Z,13.70
2023-02-13T14:16:47.564Z,10.15
2023-02-13T14:19:45.283Z,11.82
2023-02-13T14:22:34.354Z,12.88
2023-02-13T14:25:06.495Z,12.25
2023-02-13T14:27:38.700Z,13.13
2023-02-13T14:30:22.212Z,14.25
2023-02-13T14:32:49.043Z,13.00
2023-02-13T14:35:33.636Z,16.27
2023-02-13T14:38:02.786Z,14.55
2023-02-13T14:40:43.979Z,16.52
2023-02-13T14:43:42.252Z,15.75
2023-02-13T14:46:41.292Z,14.18
2023-02-13T14:49:15.430Z,16.05
2023-02-13T14:51:49.463Z,14.20
2023-02-13T14:54:26.384Z,18.10
2023-02-13T14:56:58.329Z,19.30
2023-02-13T14:59:29.207Z,19.15
2023-02-13T15:02:01.127Z,18.70
2023-02-13T15:04:38.908Z,22.42
2023-02-13T15:07:13.265Z,17.65
2023-02-13T15:09:41.511Z,17.60
2023-02-13T15:12:34.380Z,19.60
2023-02-13T15:15:02.172Z,19.42
2023-02-13T15:17:32.789Z,19.15
2023-02-13T15:20:24.352Z,24.40
2023-02-13T15:22:51.679Z,20.70
2023-02-13T15:25:39.173Z,22.27
2023-02-13T15:28:08.521Z,20.67
2023-02-13T15:30:37.061Z,19.45
2023-02-13T15:33:17.090Z,33.13
2023-02-13T15:35:44.818Z,26.05
2023-02-13T15:38:24.907Z,27.25
2023-02-13T15:40:55.451Z,27.83
2023-02-13T15:43:32.223Z,26.58
2023-02-13T15:46:02.670Z,29.15
2023-02-13T15:48:31.974Z,30.38
2023-02-13T15:50:59.248Z,26.00
2023-02-13T15:53:26.066Z,28.13
2023-02-13T15:56:01.799Z,22.17
2023-02-13T15:58:34.205Z,22.88
2023-02-13T16:01:05.587Z,24.77
2023-02-13T16:03:34.764Z,25.73
2023-02-13T16:06:02.504Z,30.98
2023-02-13T16:08:36.097Z,26.02
2023-02-13T16:11:26.717Z,26.90
2023-02-13T16:14:26.746Z,27.45
2023-02-13T16:17:03.159Z,29.75
2023-02-13T16:19:41.966Z,34.42
2023-02-13T16:22:54.652Z,32.22
2023-02-13T16:25:39.452Z,35.08
2023-02-13T16:28:21.341Z,40.05
2023-02-13T16:30:59.991Z,45.00
2023-02-13T16:33:31.905Z,43.30
2023-02-13T16:36:01.065Z,45.43
2023-02-13T16:38:36.479Z,47.33
2023-02-13T16:41:05.990Z,45.53
2023-02-13T16:44:02.917Z,122.30
2023-02-13T16:46:33.028Z,159.23
2023-02-13T16:49:21.888Z,121.05
2023-02-13T16:51:52.440Z,148.52
2023-02-13T16:54:48.595Z,266.05
2023-02-13T16:57:23.050Z,260.05
2023-02-13T17:00:22.272Z,161.18
2023-02-13T17:02:50.848Z,106.22
2023-02-13T17:05:24.130Z,99.38
2023-02-13T17:07:54.501Z,78.65
2023-02-13T17:10:40.005Z,86.90
2023-02-13T17:13:11.484Z,72.20
2023-02-13T17:15:42.054Z,59.47
2023-02-13T17:18:08.692Z,81.28
2023-02-13T17:20:37.337Z,87.43
2023-02-13T17:23:07.029Z,70.55
2023-02-13T17:25:37.977Z,47.30
2023-02-13T17:28:16.644Z,50.63
2023-02-13T17:30:44.368Z,44.45
2023-02-13T17:33:16.613Z,38.80
2023-02-13T17:35:43.306Z,48.35
2023-02-13T17:38:10.440Z,39.53
2023-02-13T17:40:37.675Z,40.67
2023-02-13T17:43:04.886Z,32.05
2023-02-13T17:45:34.596Z,34.58
2023-02-13T17:48:01.265Z,31.67
2023-02-13T17:50:29.818Z,38.40
2023-02-13T17:52:57.720Z,50.60
2023-02-13T17:55:26.816Z,61.75
2023-02-13T17:57:56.573Z,54.95
2023-02-13T18:00:25.696Z,48.10
2023-02-13T18:02:52.565Z,45.13
2023-02-13T18:05:19.961Z,43.03
2023-02-13T18:07:47.752Z,38.72
2023-02-13T18:10:17.523Z,45.47
2023-02-13T18:12:45.401Z,45.92
2023-02-13T18:15:13.350Z,33.63
2023-02-13T18:17:40.086Z,38.90
2023-02-13T18:20:09.720Z,33.55
2023-02-13T18:22:36.449Z,36.72
2023-02-13T18:25:04.356Z,34.53
2023-02-13T18:27:30.987Z,32.28
2023-02-13T18:29:57.703Z,39.08
2023-02-13T18:32:24.918Z,37.58
2023-02-13T18:34:51.662Z,37.20
2023-02-13T18:37:18.695Z,39.83
2023-02-13T18:39:45.360Z,38.13
2023-02-13T18:42:13.363Z,35.58
2023-02-13T18:44:40.805Z,37.97
2023-02-13T18:47:08.217Z,37.13
2023-02-13T18:49:36.206Z,36.67
2023-02-13T18:52:03.127Z,43.78
2023-02-13T18:54:29.971Z,35.78
2023-02-13T18:56:56.668Z,37.45
2023-02-13T18:59:23.581Z,32.85
2023-02-13T19:01:51.149Z,32.65
2023-02-13T19:04:17.827Z,35.60
2023-02-13T19:06:44.997Z,38.03
2023-02-13T19:09:11.710Z,35.33
2023-02-13T19:11:39.514Z,31.98
2023-02-13T19:14:06.920Z,35.25
2023-02-13T19:16:35.463Z,34.85
2023-02-13T19:19:05.181Z,38.33
2023-02-13T19:21:33.963Z,34.78
2023-02-13T19:24:02.890Z,36.78
2023-02-13T19:26:29.593Z,32.08
2023-02-13T19:28:58.004Z,32.97
2023-02-13T19:31:27.429Z,34.28
2023-02-13T19:33:54.667Z,32.70
2023-02-13T19:36:25.649Z,27.40
2023-02-13T19:39:03.103Z,27.63
2023-02-13T19:41:30.400Z,32.58
2023-02-13T19:43:57.296Z,31.23
2023-02-13T19:46:29.058Z,30.42
2023-02-13T19:48:56.030Z,31.92
2023-02-13T19:51:25.660Z,33.90
2023-02-13T19:54:00.832Z,32.65
2023-02-13T19:56:28.448Z,28.60
2023-02-13T19:58:55.245Z,31.95
2023-02-13T20:01:23.695Z,33.53
2023-02-13T20:03:51.091Z,33.65
2023-02-13T20:06:21.413Z,35.63
2023-02-13T20:08:51.596Z,28.02
2023-02-13T20:11:20.854Z,32.90
2023-02-13T20:13:48.312Z,25.40
2023-02-13T20:16:17.160Z,34.42
2023-02-13T20:18:44.036Z,41.45
2023-02-13T20:21:12.752Z,32.65
2023-02-13T20:23:40.062Z,37.05
2023-02-13T20:26:14.721Z,32.53
2023-02-13T20:28:42.887Z,36.15
2023-02-13T20:31:17.596Z,38.42
2023-02-13T20:33:45.113Z,37.75
2023-02-13T20:36:16.384Z,34.17
2023-02-13T20:38:43.545Z,40.13
2023-02-13T20:41:17.654Z,42.22
2023-02-13T20:43:44.990Z,102.00
2023-02-13T20:46:12.700Z,55.55
2023-02-13T20:48:40.679Z,51.47
2023-02-13T20:51:11.492Z,39.05
2023-02-13T20:53:38.903Z,32.50
2023-02-13T20:56:13.345Z,37.40
2023-02-13T20:58:42.054Z,39.42
2023-02-13T21:01:22.999Z,31.38
2023-02-13T21:03:53.743Z,35.17
2023-02-13T21:06:25.771Z,39.75
2023-02-13T21:08:52.496Z,32.85
2023-02-13T21:11:20.277Z,34.25
2023-02-13T21:13:47.169Z,32.17
2023-02-13T21:16:25.471Z,28.38
2023-02-13T21:18:54.886Z,28.58
2023-02-13T21:21:24.171Z,35.65
2023-02-13T21:23:54.618Z,47.75
2023-02-13T21:26:21.707Z,32.15
2023-02-13T21:28:49.367Z,34.50
2023-02-13T21:31:27.593Z,33.90
2023-02-13T21:33:56.711Z,36.17
2023-02-13T21:36:23.364Z,40.17
2023-02-13T21:38:50.054Z,37.47
2023-02-13T21:41:18.367Z,39.35
2023-02-13T21:43:48.419Z,32.05
2023-02-13T21:46:21.008Z,36.92
2023-02-13T21:48:51.749Z,38.28
2023-02-13T21:51:20.147Z,38.28
2023-02-13T21:53:48.720Z,37.45
2023-02-13T21:56:20.411Z,34.60
2023-02-13T21:58:47.777Z,39.85
2023-02-13T22:01:26.083Z,36.65
2023-02-13T22:04:00.340Z,28.05
2023-02-13T22:06:28.379Z,39.05
2023-02-13T22:09:08.989Z,35.78
2023-02-13T22:11:36.227Z,35.70
2023-02-13T22:14:05.608Z,35.88
2023-02-13T22:16:34.886Z,39.53
2023-02-13T22:19:02.307Z,38.50
2023-02-13T22:21:33.588Z,34.58
2023-02-13T22:24:00.376Z,39.72
2023-02-13T22:26:35.330Z,35.63
2023-02-13T22:29:10.766Z,34.83
2023-02-13T22:31:38.008Z,34.30
2023-02-13T22:34:05.954Z,33.45
2023-02-13T22:36:35.075Z,32.53
2023-02-13T22:39:01.857Z,36.95
2023-02-13T22:41:28.596Z,35.58
2023-02-13T22:43:55.894Z,47.58
2023-02-13T22:46:25.414Z,42.55
2023-02-13T22:48:52.827Z,38.28
2023-02-13T22:51:25.686Z,40.78
2023-02-13T22:53:54.418Z,32.95
2023-02-13T22:56:21.667Z,37.90
2023-02-13T22:58:48.673Z,37.65
2023-02-13T23:01:18.174Z,37.50
2023-02-13T23:03:45.090Z,45.92
2023-02-13T23:06:13.858Z,39.10
2023-02-13T23:08:41.276Z,41.03
2023-02-13T23:11:30.152Z,41.72
2023-02-13T23:13:56.939Z,46.08
2023-02-13T23:16:23.860Z,41.47
2023-02-13T23:18:57.706Z,36.28
2023-02-13T23:21:25.106Z,42.88
2023-02-13T23:23:51.876Z,38.72
2023-02-13T23:26:18.806Z,47.15
2023-02-13T23:28:45.532Z,48.90
2023-02-13T23:31:12.286Z,74.32
2023-02-13T23:33:38.990Z,98.60
2023-02-13T23:36:06.414Z,96.13
2023-02-13T23:38:33.081Z,134.45
2023-02-13T23:41:09.032Z,65.72
2023-02-13T23:43:35.790Z,210.52
2023-02-13T23:46:06.805Z,251.35
2023-02-13T23:48:34.193Z,44.25
2023-02-13T23:51:01.566Z,127.78
2023-02-13T23:53:28.575Z,123.50
2023-02-13T23:55:55.326Z,59.67
2023-02-13T23:58:22.058Z,40.90
